sensor_id;sensor_type;location;lat;lon;timestamp;P1;durP1;ratioP1;P2;durP2;ratioP2
1649;SDS011;822;53.670;8.676;2023-02-15T00:01:30;4.23;;;3.87;;
1649;SDS011;822;53.670;8.676;2023-02-15T00:04:01;6.00;;;5.00;;
1649;SDS011;822;53.670;8.676;2023-02-15T00:06:28;6.10;;;3.43;;
1649;SDS011;822;53.670;8.676;2023-02-15T00:08:58;4.83;;;3.60;;
1649;SDS011;822;53.670;8.676;2023-02-15T00:11:27;4.40;;;2.70;;
1649;SDS011;822;53.670;8.676;2023-02-15T00:14:08;4.40;;;3.90;;
1649;SDS011;822;53.670;8.676;2023-02-15T00:16:40;3.97;;;3.57;;
1649;SDS011;822;53.670;8.676;2023-02-15T00:19:08;4.80;;;3.80;;
1649;SDS011;822;53.670;8.676;2023-02-15T00:21:37;6.30;;;3.50;;
1649;SDS011;822;53.670;8.676;2023-02-15T00:24:08;4.53;;;3.83;;
1649;SDS011;822;53.670;8.676;2023-02-15T00:26:40;4.80;;;4.33;;
1649;SDS011;822;53.670;8.676;2023-02-15T00:29:08;3.60;;;3.30;;
1649;SDS011;822;53.670;8.676;2023-02-15T00:31:36;4.70;;;4.03;;
1649;SDS011;822;53.670;8.676;2023-02-15T00:34:04;3.90;;;3.60;;
1649;SDS011;822;53.670;8.676;2023-02-15T00:36:35;4.23;;;3.83;;
1649;SDS011;822;53.670;8.676;2023-02-15T00:39:02;4.67;;;3.03;;
1649;SDS011;822;53.670;8.676;2023-02-15T00:41:30;5.17;;;4.33;;
1649;SDS011;822;53.670;8.676;2023-02-15T00:43:59;4.27;;;3.70;;
1649;SDS011;822;53.670;8.676;2023-02-15T00:46:26;3.17;;;2.87;;
1649;SDS011;822;53.670;8.676;2023-02-15T00:48:53;5.23;;;3.83;;
1649;SDS011;822;53.670;8.676;2023-02-15T00:51:20;5.70;;;4.27;;
1649;SDS011;822;53.670;8.676;2023-02-15T00:53:47;4.47;;;3.20;;
1649;SDS011;822;53.670;8.676;2023-02-15T00:56:15;5.33;;;3.73;;
1649;SDS011;822;53.670;8.676;2023-02-15T00:58:42;5.50;;;3.97;;
1649;SDS011;822;53.670;8.676;2023-02-15T01:01:11;11.20;;;5.80;;
1649;SDS011;822;53.670;8.676;2023-02-15T01:03:40;7.13;;;6.00;;
1649;SDS011;822;53.670;8.676;2023-02-15T01:06:07;4.80;;;4.40;;
1649;SDS011;822;53.670;8.676;2023-02-15T01:08:35;5.70;;;4.90;;
1649;SDS011;822;53.670;8.676;2023-02-15T01:11:03;6.90;;;5.17;;
1649;SDS011;822;53.670;8.676;2023-02-15T01:13:30;3.83;;;3.53;;
1649;SDS011;822;53.670;8.676;2023-02-15T01:15:57;4.17;;;3.80;;
1649;SDS011;822;53.670;8.676;2023-02-15T01:18:26;3.00;;;2.80;;
1649;SDS011;822;53.670;8.676;2023-02-15T01:20:53;4.13;;;3.93;;
1649;SDS011;822;53.670;8.676;2023-02-15T01:23:20;7.00;;;3.73;;
1649;SDS011;822;53.670;8.676;2023-02-15T01:25:47;4.43;;;3.50;;
1649;SDS011;822;53.670;8.676;2023-02-15T01:28:15;4.97;;;4.50;;
1649;SDS011;822;53.670;8.676;2023-02-15T01:30:42;3.40;;;3.10;;
1649;SDS011;822;53.670;8.676;2023-02-15T01:33:09;3.43;;;2.50;;
1649;SDS011;822;53.670;8.676;2023-02-15T01:35:44;6.30;;;4.23;;
1649;SDS011;822;53.670;8.676;2023-02-15T01:38:11;5.13;;;4.13;;
1649;SDS011;822;53.670;8.676;2023-02-15T01:40:39;8.10;;;4.10;;
1649;SDS011;822;53.670;8.676;2023-02-15T01:43:09;4.73;;;4.33;;
1649;SDS011;822;53.670;8.676;2023-02-15T01:45:36;6.43;;;4.40;;
1649;SDS011;822;53.670;8.676;2023-02-15T01:48:05;4.50;;;4.20;;
1649;SDS011;822;53.670;8.676;2023-02-15T01:50:39;5.70;;;4.07;;
1649;SDS011;822;53.670;8.676;2023-02-15T01:53:12;3.13;;;2.63;;
1649;SDS011;822;53.670;8.676;2023-02-15T01:55:43;3.00;;;2.80;;
1649;SDS011;822;53.670;8.676;2023-02-15T01:58:14;3.70;;;3.40;;
1649;SDS011;822;53.670;8.676;2023-02-15T02:00:41;3.60;;;2.73;;
1649;SDS011;822;53.670;8.676;2023-02-15T02:03:09;6.30;;;4.33;;
1649;SDS011;822;53.670;8.676;2023-02-15T02:05:40;3.77;;;3.40;;
1649;SDS011;822;53.670;8.676;2023-02-15T02:08:08;3.80;;;3.47;;
1649;SDS011;822;53.670;8.676;2023-02-15T02:10:37;5.60;;;4.40;;
1649;SDS011;822;53.670;8.676;2023-02-15T02:13:10;3.60;;;3.10;;
1649;SDS011;822;53.670;8.676;2023-02-15T02:15:41;3.47;;;3.03;;
1649;SDS011;822;53.670;8.676;2023-02-15T02:18:18;3.27;;;2.43;;
1649;SDS011;822;53.670;8.676;2023-02-15T02:21:11;3.43;;;3.17;;
1649;SDS011;822;53.670;8.676;2023-02-15T02:24:17;3.60;;;3.30;;
1649;SDS011;822;53.670;8.676;2023-02-15T02:27:14;5.60;;;3.27;;
1649;SDS011;822;53.670;8.676;2023-02-15T02:29:57;8.47;;;3.57;;
1649;SDS011;822;53.670;8.676;2023-02-15T02:36:02;3.07;;;2.80;;
1649;SDS011;822;53.670;8.676;2023-02-15T02:38:42;5.90;;;3.40;;
1649;SDS011;822;53.670;8.676;2023-02-15T02:41:31;5.47;;;3.23;;
1649;SDS011;822;53.670;8.676;2023-02-15T02:44:04;4.40;;;3.67;;
1649;SDS011;822;53.670;8.676;2023-02-15T02:46:39;6.67;;;3.27;;
1649;SDS011;822;53.670;8.676;2023-02-15T02:49:13;5.40;;;3.40;;
1649;SDS011;822;53.670;8.676;2023-02-15T02:51:41;2.50;;;2.30;;
1649;SDS011;822;53.670;8.676;2023-02-15T02:54:08;4.90;;;4.37;;
1649;SDS011;822;53.670;8.676;2023-02-15T02:56:36;2.80;;;2.43;;
1649;SDS011;822;53.670;8.676;2023-02-15T02:59:09;2.87;;;2.63;;
1649;SDS011;822;53.670;8.676;2023-02-15T03:01:40;7.00;;;3.37;;
1649;SDS011;822;53.670;8.676;2023-02-15T03:04:11;4.40;;;4.00;;
1649;SDS011;822;53.670;8.676;2023-02-15T03:06:44;1.87;;;1.53;;
1649;SDS011;822;53.670;8.676;2023-02-15T03:09:15;3.13;;;2.53;;
1649;SDS011;822;53.670;8.676;2023-02-15T03:11:48;2.80;;;2.53;;
1649;SDS011;822;53.670;8.676;2023-02-15T03:14:16;2.83;;;2.13;;
1649;SDS011;822;53.670;8.676;2023-02-15T03:16:46;2.80;;;2.63;;
1649;SDS011;822;53.670;8.676;2023-02-15T03:19:21;3.93;;;3.47;;
1649;SDS011;822;53.670;8.676;2023-02-15T03:21:51;3.60;;;3.40;;
1649;SDS011;822;53.670;8.676;2023-02-15T03:24:29;3.80;;;3.50;;
1649;SDS011;822;53.670;8.676;2023-02-15T03:26:59;2.83;;;2.63;;
1649;SDS011;822;53.670;8.676;2023-02-15T03:29:30;2.40;;;2.20;;
1649;SDS011;822;53.670;8.676;2023-02-15T03:31:59;3.87;;;3.50;;
1649;SDS011;822;53.670;8.676;2023-02-15T03:34:29;7.10;;;5.53;;
1649;SDS011;822;53.670;8.676;2023-02-15T03:36:58;3.17;;;3.03;;
1649;SDS011;822;53.670;8.676;2023-02-15T03:39:32;3.37;;;3.10;;
1649;SDS011;822;53.670;8.676;2023-02-15T03:42:04;3.03;;;2.70;;
1649;SDS011;822;53.670;8.676;2023-02-15T03:44:38;3.97;;;3.50;;
1649;SDS011;822;53.670;8.676;2023-02-15T03:47:13;3.53;;;2.40;;
1649;SDS011;822;53.670;8.676;2023-02-15T03:49:42;3.33;;;3.10;;
1649;SDS011;822;53.670;8.676;2023-02-15T03:52:14;5.90;;;3.70;;
1649;SDS011;822;53.670;8.676;2023-02-15T03:54:43;3.07;;;2.87;;
1649;SDS011;822;53.670;8.676;2023-02-15T03:57:13;2.77;;;2.63;;
1649;SDS011;822;53.670;8.676;2023-02-15T03:59:59;2.27;;;2.07;;
1649;SDS011;822;53.670;8.676;2023-02-15T04:02:52;3.60;;;2.97;;
1649;SDS011;822;53.670;8.676;2023-02-15T04:05:30;2.33;;;2.17;;
1649;SDS011;822;53.670;8.676;2023-02-15T04:07:59;4.80;;;3.43;;
1649;SDS011;822;53.670;8.676;2023-02-15T04:10:26;2.63;;;2.40;;
1649;SDS011;822;53.670;8.676;2023-02-15T04:13:11;3.07;;;2.87;;
1649;SDS011;822;53.670;8.676;2023-02-15T04:15:38;4.20;;;2.53;;
1649;SDS011;822;53.670;8.676;2023-02-15T04:18:22;3.10;;;2.33;;
1649;SDS011;822;53.670;8.676;2023-02-15T04:21:07;5.47;;;3.63;;
1649;SDS011;822;53.670;8.676;2023-02-15T04:23:53;5.90;;;5.20;;
1649;SDS011;822;53.670;8.676;2023-02-15T04:26:37;3.70;;;3.30;;
1649;SDS011;822;53.670;8.676;2023-02-15T04:29:05;3.83;;;3.47;;
1649;SDS011;822;53.670;8.676;2023-02-15T04:31:32;5.00;;;4.13;;
1649;SDS011;822;53.670;8.676;2023-02-15T04:33:59;3.17;;;2.87;;
1649;SDS011;822;53.670;8.676;2023-02-15T04:36:26;2.33;;;2.13;;
1649;SDS011;822;53.670;8.676;2023-02-15T04:38:54;6.03;;;4.63;;
1649;SDS011;822;53.670;8.676;2023-02-15T04:41:24;4.73;;;4.33;;
1649;SDS011;822;53.670;8.676;2023-02-15T04:43:51;3.37;;;3.07;;
1649;SDS011;822;53.670;8.676;2023-02-15T04:46:18;2.50;;;2.30;;
1649;SDS011;822;53.670;8.676;2023-02-15T04:48:45;3.03;;;2.80;;
1649;SDS011;822;53.670;8.676;2023-02-15T04:51:13;3.77;;;3.10;;
1649;SDS011;822;53.670;8.676;2023-02-15T04:53:40;3.80;;;3.30;;
1649;SDS011;822;53.670;8.676;2023-02-15T04:56:08;3.43;;;3.07;;
1649;SDS011;822;53.670;8.676;2023-02-15T04:58:35;3.37;;;3.17;;
1649;SDS011;822;53.670;8.676;2023-02-15T05:01:06;5.17;;;3.40;;
1649;SDS011;822;53.670;8.676;2023-02-15T05:03:33;3.23;;;3.03;;
1649;SDS011;822;53.670;8.676;2023-02-15T05:06:00;5.17;;;2.60;;
1649;SDS011;822;53.670;8.676;2023-02-15T05:08:27;5.43;;;4.77;;
1649;SDS011;822;53.670;8.676;2023-02-15T05:10:55;3.67;;;3.37;;
1649;SDS011;822;53.670;8.676;2023-02-15T05:13:24;2.43;;;2.30;;
1649;SDS011;822;53.670;8.676;2023-02-15T05:15:52;5.27;;;4.00;;
1649;SDS011;822;53.670;8.676;2023-02-15T05:18:19;2.47;;;2.27;;
1649;SDS011;822;53.670;8.676;2023-02-15T05:20:47;3.80;;;3.60;;
1649;SDS011;822;53.670;8.676;2023-02-15T05:23:15;3.97;;;3.57;;
1649;SDS011;822;53.670;8.676;2023-02-15T05:25:48;4.13;;;3.73;;
1649;SDS011;822;53.670;8.676;2023-02-15T05:28:35;3.17;;;2.90;;
1649;SDS011;822;53.670;8.676;2023-02-15T05:31:07;4.50;;;3.13;;
1649;SDS011;822;53.670;8.676;2023-02-15T05:33:36;3.10;;;2.90;;
1649;SDS011;822;53.670;8.676;2023-02-15T05:36:03;3.23;;;2.93;;
1649;SDS011;822;53.670;8.676;2023-02-15T05:38:31;4.73;;;2.87;;
1649;SDS011;822;53.670;8.676;2023-02-15T05:40:59;4.00;;;3.30;;
1649;SDS011;822;53.670;8.676;2023-02-15T05:43:26;5.13;;;4.70;;
1649;SDS011;822;53.670;8.676;2023-02-15T05:45:54;2.60;;;2.40;;
1649;SDS011;822;53.670;8.676;2023-02-15T05:48:22;3.50;;;3.30;;
1649;SDS011;822;53.670;8.676;2023-02-15T05:50:56;3.80;;;3.60;;
1649;SDS011;822;53.670;8.676;2023-02-15T05:53:24;3.10;;;2.23;;
1649;SDS011;822;53.670;8.676;2023-02-15T05:55:51;3.50;;;3.20;;
1649;SDS011;822;53.670;8.676;2023-02-15T05:58:23;4.63;;;4.23;;
1649;SDS011;822;53.670;8.676;2023-02-15T06:00:51;4.70;;;3.50;;
1649;SDS011;822;53.670;8.676;2023-02-15T06:03:19;4.20;;;3.93;;
1649;SDS011;822;53.670;8.676;2023-02-15T06:05:47;3.73;;;3.43;;
1649;SDS011;822;53.670;8.676;2023-02-15T06:08:14;4.60;;;4.27;;
1649;SDS011;822;53.670;8.676;2023-02-15T06:10:41;3.77;;;3.43;;
1649;SDS011;822;53.670;8.676;2023-02-15T06:13:08;3.03;;;2.87;;
1649;SDS011;822;53.670;8.676;2023-02-15T06:15:36;3.20;;;3.00;;
1649;SDS011;822;53.670;8.676;2023-02-15T06:18:03;3.40;;;3.10;;
1649;SDS011;822;53.670;8.676;2023-02-15T06:20:31;7.97;;;4.67;;
1649;SDS011;822;53.670;8.676;2023-02-15T06:22:58;10.83;;;4.97;;
1649;SDS011;822;53.670;8.676;2023-02-15T06:25:28;7.27;;;6.53;;
1649;SDS011;822;53.670;8.676;2023-02-15T06:27:55;12.87;;;11.77;;
1649;SDS011;822;53.670;8.676;2023-02-15T06:30:27;5.90;;;4.13;;
1649;SDS011;822;53.670;8.676;2023-02-15T06:32:54;3.57;;;3.23;;
1649;SDS011;822;53.670;8.676;2023-02-15T06:35:21;4.43;;;4.10;;
1649;SDS011;822;53.670;8.676;2023-02-15T06:37:49;4.47;;;4.07;;
1649;SDS011;822;53.670;8.676;2023-02-15T06:40:16;3.43;;;3.23;;
1649;SDS011;822;53.670;8.676;2023-02-15T06:42:44;3.40;;;2.93;;
1649;SDS011;822;53.670;8.676;2023-02-15T06:45:11;8.50;;;4.20;;
1649;SDS011;822;53.670;8.676;2023-02-15T06:47:41;3.57;;;2.80;;
1649;SDS011;822;53.670;8.676;2023-02-15T06:50:09;3.83;;;3.50;;
1649;SDS011;822;53.670;8.676;2023-02-15T06:52:36;1.93;;;1.80;;
1649;SDS011;822;53.670;8.676;2023-02-15T06:55:05;5.40;;;3.20;;
1649;SDS011;822;53.670;8.676;2023-02-15T06:57:33;3.37;;;3.07;;
1649;SDS011;822;53.670;8.676;2023-02-15T07:00:00;6.73;;;3.93;;
1649;SDS011;822;53.670;8.676;2023-02-15T07:02:29;4.13;;;3.80;;
1649;SDS011;822;53.670;8.676;2023-02-15T07:04:57;2.87;;;2.60;;
1649;SDS011;822;53.670;8.676;2023-02-15T07:07:24;5.30;;;4.90;;
1649;SDS011;822;53.670;8.676;2023-02-15T07:09:54;7.07;;;5.93;;
1649;SDS011;822;53.670;8.676;2023-02-15T07:12:23;5.87;;;4.10;;
1649;SDS011;822;53.670;8.676;2023-02-15T07:15:08;5.57;;;3.17;;
1649;SDS011;822;53.670;8.676;2023-02-15T07:17:35;2.70;;;2.47;;
1649;SDS011;822;53.670;8.676;2023-02-15T07:20:04;4.60;;;4.20;;
1649;SDS011;822;53.670;8.676;2023-02-15T07:22:32;4.57;;;4.10;;
1649;SDS011;822;53.670;8.676;2023-02-15T07:25:01;4.13;;;2.97;;
1649;SDS011;822;53.670;8.676;2023-02-15T07:27:30;4.97;;;2.60;;
1649;SDS011;822;53.670;8.676;2023-02-15T07:29:57;3.37;;;2.83;;
1649;SDS011;822;53.670;8.676;2023-02-15T07:32:26;3.57;;;3.27;;
1649;SDS011;822;53.670;8.676;2023-02-15T07:34:54;5.67;;;3.30;;
1649;SDS011;822;53.670;8.676;2023-02-15T07:37:22;3.87;;;2.30;;
1649;SDS011;822;53.670;8.676;2023-02-15T07:39:50;3.83;;;3.53;;
1649;SDS011;822;53.670;8.676;2023-02-15T07:42:18;5.03;;;4.77;;
1649;SDS011;822;53.670;8.676;2023-02-15T07:44:48;3.60;;;3.30;;
1649;SDS011;822;53.670;8.676;2023-02-15T07:47:15;2.57;;;2.37;;
1649;SDS011;822;53.670;8.676;2023-02-15T07:49:42;3.50;;;3.20;;
1649;SDS011;822;53.670;8.676;2023-02-15T07:52:09;5.33;;;4.93;;
1649;SDS011;822;53.670;8.676;2023-02-15T07:54:37;3.70;;;3.23;;
1649;SDS011;822;53.670;8.676;2023-02-15T07:57:07;5.83;;;3.83;;
1649;SDS011;822;53.670;8.676;2023-02-15T07:59:34;3.30;;;2.33;;
1649;SDS011;822;53.670;8.676;2023-02-15T08:02:07;3.47;;;2.77;;
1649;SDS011;822;53.670;8.676;2023-02-15T08:04:35;4.17;;;3.90;;
1649;SDS011;822;53.670;8.676;2023-02-15T08:07:02;4.67;;;4.27;;
1649;SDS011;822;53.670;8.676;2023-02-15T08:09:30;3.60;;;3.00;;
1649;SDS011;822;53.670;8.676;2023-02-15T08:11:57;6.57;;;4.93;;
1649;SDS011;822;53.670;8.676;2023-02-15T08:14:24;4.73;;;3.70;;
1649;SDS011;822;53.670;8.676;2023-02-15T08:16:54;6.03;;;4.27;;
1649;SDS011;822;53.670;8.676;2023-02-15T08:19:23;4.40;;;3.13;;
1649;SDS011;822;53.670;8.676;2023-02-15T08:21:53;3.57;;;3.00;;
1649;SDS011;822;53.670;8.676;2023-02-15T08:24:25;2.93;;;2.67;;
1649;SDS011;822;53.670;8.676;2023-02-15T08:26:54;5.93;;;3.50;;
1649;SDS011;822;53.670;8.676;2023-02-15T08:29:21;7.17;;;4.60;;
1649;SDS011;822;53.670;8.676;2023-02-15T08:31:52;2.97;;;2.63;;
1649;SDS011;822;53.670;8.676;2023-02-15T08:34:20;8.83;;;5.40;;
1649;SDS011;822;53.670;8.676;2023-02-15T08:36:49;4.90;;;4.43;;
1649;SDS011;822;53.670;8.676;2023-02-15T08:39:16;5.33;;;4.60;;
1649;SDS011;822;53.670;8.676;2023-02-15T08:41:44;4.10;;;3.70;;
1649;SDS011;822;53.670;8.676;2023-02-15T08:44:14;5.53;;;3.93;;
1649;SDS011;822;53.670;8.676;2023-02-15T08:46:43;3.47;;;3.17;;
1649;SDS011;822;53.670;8.676;2023-02-15T08:49:12;6.23;;;5.30;;
1649;SDS011;822;53.670;8.676;2023-02-15T08:51:42;8.00;;;4.60;;
1649;SDS011;822;53.670;8.676;2023-02-15T08:54:11;6.60;;;6.00;;
1649;SDS011;822;53.670;8.676;2023-02-15T08:56:40;4.20;;;3.87;;
1649;SDS011;822;53.670;8.676;2023-02-15T08:59:11;5.30;;;4.90;;
1649;SDS011;822;53.670;8.676;2023-02-15T09:01:39;6.63;;;5.93;;
1649;SDS011;822;53.670;8.676;2023-02-15T09:04:07;13.53;;;4.10;;
1649;SDS011;822;53.670;8.676;2023-02-15T09:06:38;9.43;;;6.70;;
1649;SDS011;822;53.670;8.676;2023-02-15T09:09:07;6.80;;;5.40;;
1649;SDS011;822;53.670;8.676;2023-02-15T09:11:35;11.50;;;5.70;;
1649;SDS011;822;53.670;8.676;2023-02-15T09:14:04;8.67;;;6.37;;
1649;SDS011;822;53.670;8.676;2023-02-15T09:16:34;8.67;;;7.37;;
1649;SDS011;822;53.670;8.676;2023-02-15T09:19:03;9.80;;;7.93;;
1649;SDS011;822;53.670;8.676;2023-02-15T09:21:42;6.07;;;5.00;;
1649;SDS011;822;53.670;8.676;2023-02-15T09:24:12;6.93;;;6.23;;
1649;SDS011;822;53.670;8.676;2023-02-15T09:26:42;7.37;;;5.97;;
1649;SDS011;822;53.670;8.676;2023-02-15T09:29:13;7.17;;;5.63;;
1649;SDS011;822;53.670;8.676;2023-02-15T09:31:42;5.90;;;5.40;;
1649;SDS011;822;53.670;8.676;2023-02-15T09:34:10;12.87;;;6.83;;
1649;SDS011;822;53.670;8.676;2023-02-15T09:36:38;6.77;;;5.77;;
1649;SDS011;822;53.670;8.676;2023-02-15T09:39:07;6.13;;;5.53;;
1649;SDS011;822;53.670;8.676;2023-02-15T09:44:32;9.17;;;6.97;;
1649;SDS011;822;53.670;8.676;2023-02-15T09:47:14;8.90;;;6.23;;
1649;SDS011;822;53.670;8.676;2023-02-15T09:49:56;16.07;;;9.10;;
1649;SDS011;822;53.670;8.676;2023-02-15T09:52:33;9.23;;;5.90;;
1649;SDS011;822;53.670;8.676;2023-02-15T09:55:13;13.90;;;6.30;;
1649;SDS011;822;53.670;8.676;2023-02-15T09:57:50;8.17;;;6.20;;
1649;SDS011;822;53.670;8.676;2023-02-15T10:00:24;10.20;;;7.20;;
1649;SDS011;822;53.670;8.676;2023-02-15T10:06:24;8.00;;;6.40;;
1649;SDS011;822;53.670;8.676;2023-02-15T10:09:25;8.30;;;7.40;;
1649;SDS011;822;53.670;8.676;2023-02-15T10:12:20;11.73;;;8.63;;
1649;SDS011;822;53.670;8.676;2023-02-15T10:15:18;13.57;;;8.43;;
1649;SDS011;822;53.670;8.676;2023-02-15T10:17:57;12.70;;;6.53;;
1649;SDS011;822;53.670;8.676;2023-02-15T10:20:46;12.20;;;10.17;;
1649;SDS011;822;53.670;8.676;2023-02-15T10:23:29;10.93;;;9.47;;
1649;SDS011;822;53.670;8.676;2023-02-15T10:26:07;14.73;;;9.07;;
1649;SDS011;822;53.670;8.676;2023-02-15T10:28:46;8.77;;;7.20;;
1649;SDS011;822;53.670;8.676;2023-02-15T10:31:24;15.77;;;7.40;;
1649;SDS011;822;53.670;8.676;2023-02-15T10:34:07;15.50;;;10.13;;
1649;SDS011;822;53.670;8.676;2023-02-15T10:39:39;12.80;;;9.10;;
1649;SDS011;822;53.670;8.676;2023-02-15T10:42:20;11.57;;;10.37;;
1649;SDS011;822;53.670;8.676;2023-02-15T10:45:06;16.70;;;10.37;;
1649;SDS011;822;53.670;8.676;2023-02-15T10:47:55;9.97;;;9.07;;
1649;SDS011;822;53.670;8.676;2023-02-15T10:50:34;15.47;;;12.00;;
1649;SDS011;822;53.670;8.676;2023-02-15T10:53:18;12.57;;;9.23;;
1649;SDS011;822;53.670;8.676;2023-02-15T10:55:55;10.30;;;8.30;;
1649;SDS011;822;53.670;8.676;2023-02-15T10:58:29;14.67;;;8.97;;
1649;SDS011;822;53.670;8.676;2023-02-15T11:01:06;15.47;;;10.70;;
1649;SDS011;822;53.670;8.676;2023-02-15T11:04:05;13.47;;;10.17;;
1649;SDS011;822;53.670;8.676;2023-02-15T11:06:46;13.87;;;10.10;;
1649;SDS011;822;53.670;8.676;2023-02-15T11:09:17;14.00;;;12.00;;
1649;SDS011;822;53.670;8.676;2023-02-15T11:11:47;16.57;;;11.33;;
1649;SDS011;822;53.670;8.676;2023-02-15T11:14:17;14.23;;;10.77;;
1649;SDS011;822;53.670;8.676;2023-02-15T11:16:50;15.80;;;11.93;;
1649;SDS011;822;53.670;8.676;2023-02-15T11:19:22;16.70;;;12.10;;
1649;SDS011;822;53.670;8.676;2023-02-15T11:21:55;19.10;;;10.83;;
1649;SDS011;822;53.670;8.676;2023-02-15T11:24:26;16.57;;;11.90;;
1649;SDS011;822;53.670;8.676;2023-02-15T11:26:56;19.00;;;12.93;;
1649;SDS011;822;53.670;8.676;2023-02-15T11:29:28;13.97;;;12.10;;
1649;SDS011;822;53.670;8.676;2023-02-15T11:32:01;16.33;;;12.33;;
1649;SDS011;822;53.670;8.676;2023-02-15T11:34:33;15.50;;;11.97;;
1649;SDS011;822;53.670;8.676;2023-02-15T11:37:04;18.27;;;14.63;;
1649;SDS011;822;53.670;8.676;2023-02-15T11:39:34;17.03;;;11.90;;
1649;SDS011;822;53.670;8.676;2023-02-15T11:42:04;16.20;;;12.43;;
1649;SDS011;822;53.670;8.676;2023-02-15T11:44:36;15.53;;;11.03;;
1649;SDS011;822;53.670;8.676;2023-02-15T11:47:09;16.47;;;11.90;;
1649;SDS011;822;53.670;8.676;2023-02-15T11:49:39;17.77;;;11.80;;
1649;SDS011;822;53.670;8.676;2023-02-15T11:52:06;11.67;;;9.90;;
1649;SDS011;822;53.670;8.676;2023-02-15T11:54:39;15.47;;;11.67;;
1649;SDS011;822;53.670;8.676;2023-02-15T11:57:11;13.93;;;11.37;;
1649;SDS011;822;53.670;8.676;2023-02-15T11:59:42;12.87;;;9.60;;
1649;SDS011;822;53.670;8.676;2023-02-15T12:02:15;15.60;;;10.10;;
1649;SDS011;822;53.670;8.676;2023-02-15T12:04:46;12.60;;;10.30;;
1649;SDS011;822;53.670;8.676;2023-02-15T12:07:19;16.20;;;10.33;;
1649;SDS011;822;53.670;8.676;2023-02-15T12:09:51;14.10;;;10.23;;
1649;SDS011;822;53.670;8.676;2023-02-15T12:12:23;14.73;;;11.30;;
1649;SDS011;822;53.670;8.676;2023-02-15T12:14:56;12.93;;;9.30;;
1649;SDS011;822;53.670;8.676;2023-02-15T12:17:25;10.67;;;8.87;;
1649;SDS011;822;53.670;8.676;2023-02-15T12:19:56;14.40;;;10.33;;
1649;SDS011;822;53.670;8.676;2023-02-15T12:22:27;11.37;;;9.37;;
1649;SDS011;822;53.670;8.676;2023-02-15T12:24:58;11.70;;;10.33;;
1649;SDS011;822;53.670;8.676;2023-02-15T12:27:27;11.33;;;9.53;;
1649;SDS011;822;53.670;8.676;2023-02-15T12:29:56;9.10;;;8.30;;
1649;SDS011;822;53.670;8.676;2023-02-15T12:32:27;13.27;;;10.00;;
1649;SDS011;822;53.670;8.676;2023-02-15T12:35:01;14.80;;;10.37;;
1649;SDS011;822;53.670;8.676;2023-02-15T12:37:33;11.47;;;10.00;;
1649;SDS011;822;53.670;8.676;2023-02-15T12:40:04;12.80;;;9.27;;
1649;SDS011;822;53.670;8.676;2023-02-15T12:42:45;10.60;;;9.30;;
1649;SDS011;822;53.670;8.676;2023-02-15T12:45:21;11.70;;;8.77;;
1649;SDS011;822;53.670;8.676;2023-02-15T12:50:42;13.10;;;9.67;;
1649;SDS011;822;53.670;8.676;2023-02-15T12:53:15;18.20;;;9.97;;
1649;SDS011;822;53.670;8.676;2023-02-15T12:55:51;11.97;;;9.83;;
1649;SDS011;822;53.670;8.676;2023-02-15T12:58:20;12.03;;;10.37;;
1649;SDS011;822;53.670;8.676;2023-02-15T13:01:01;16.20;;;11.93;;
1649;SDS011;822;53.670;8.676;2023-02-15T13:03:31;12.70;;;10.80;;
1649;SDS011;822;53.670;8.676;2023-02-15T13:05:59;11.43;;;9.70;;
1649;SDS011;822;53.670;8.676;2023-02-15T13:08:33;15.23;;;12.00;;
1649;SDS011;822;53.670;8.676;2023-02-15T13:11:06;14.90;;;10.73;;
1649;SDS011;822;53.670;8.676;2023-02-15T13:13:35;15.87;;;11.97;;
1649;SDS011;822;53.670;8.676;2023-02-15T13:16:05;14.67;;;11.30;;
1649;SDS011;822;53.670;8.676;2023-02-15T13:18:37;14.50;;;12.23;;
1649;SDS011;822;53.670;8.676;2023-02-15T13:21:11;11.63;;;10.43;;
1649;SDS011;822;53.670;8.676;2023-02-15T13:23:43;16.10;;;11.30;;
1649;SDS011;822;53.670;8.676;2023-02-15T13:26:25;12.67;;;11.13;;
1649;SDS011;822;53.670;8.676;2023-02-15T13:28:55;13.60;;;10.00;;
1649;SDS011;822;53.670;8.676;2023-02-15T13:31:26;12.90;;;11.47;;
1649;SDS011;822;53.670;8.676;2023-02-15T13:33:58;13.83;;;11.70;;
1649;SDS011;822;53.670;8.676;2023-02-15T13:36:33;13.23;;;10.80;;
1649;SDS011;822;53.670;8.676;2023-02-15T13:39:11;14.53;;;10.77;;
1649;SDS011;822;53.670;8.676;2023-02-15T13:41:49;12.87;;;11.13;;
1649;SDS011;822;53.670;8.676;2023-02-15T13:44:27;18.60;;;12.43;;
1649;SDS011;822;53.670;8.676;2023-02-15T13:47:21;11.87;;;9.67;;
1649;SDS011;822;53.670;8.676;2023-02-15T13:49:58;12.20;;;9.60;;
1649;SDS011;822;53.670;8.676;2023-02-15T13:52:46;13.57;;;10.47;;
1649;SDS011;822;53.670;8.676;2023-02-15T13:55:28;13.30;;;10.70;;
1649;SDS011;822;53.670;8.676;2023-02-15T14:01:08;16.90;;;10.90;;
1649;SDS011;822;53.670;8.676;2023-02-15T14:06:51;13.03;;;10.30;;
1649;SDS011;822;53.670;8.676;2023-02-15T14:09:43;16.97;;;10.70;;
1649;SDS011;822;53.670;8.676;2023-02-15T14:12:26;13.23;;;9.60;;
1649;SDS011;822;53.670;8.676;2023-02-15T14:15:04;13.13;;;9.73;;
1649;SDS011;822;53.670;8.676;2023-02-15T14:17:52;10.17;;;8.27;;
1649;SDS011;822;53.670;8.676;2023-02-15T14:20:29;13.00;;;9.77;;
1649;SDS011;822;53.670;8.676;2023-02-15T14:23:10;13.40;;;9.70;;
1649;SDS011;822;53.670;8.676;2023-02-15T14:25:50;15.03;;;11.20;;
1649;SDS011;822;53.670;8.676;2023-02-15T14:28:22;12.97;;;8.20;;
1649;SDS011;822;53.670;8.676;2023-02-15T14:30:57;10.50;;;9.10;;
1649;SDS011;822;53.670;8.676;2023-02-15T14:33:28;11.90;;;10.40;;
1649;SDS011;822;53.670;8.676;2023-02-15T14:35:59;13.70;;;9.30;;
1649;SDS011;822;53.670;8.676;2023-02-15T14:38:30;13.43;;;9.97;;
1649;SDS011;822;53.670;8.676;2023-02-15T14:41:11;15.00;;;10.07;;
1649;SDS011;822;53.670;8.676;2023-02-15T14:43:46;10.97;;;8.60;;
1649;SDS011;822;53.670;8.676;2023-02-15T14:46:18;10.37;;;9.20;;
1649;SDS011;822;53.670;8.676;2023-02-15T14:48:53;10.50;;;8.17;;
1649;SDS011;822;53.670;8.676;2023-02-15T15:00:33;11.90;;;9.77;;
1649;SDS011;822;53.670;8.676;2023-02-15T15:03:09;15.00;;;9.53;;
1649;SDS011;822;53.670;8.676;2023-02-15T15:05:49;13.17;;;9.70;;
1649;SDS011;822;53.670;8.676;2023-02-15T15:08:28;11.80;;;8.67;;
1649;SDS011;822;53.670;8.676;2023-02-15T15:14:05;11.80;;;10.03;;
1649;SDS011;822;53.670;8.676;2023-02-15T15:22:32;11.60;;;9.80;;
1649;SDS011;822;53.670;8.676;2023-02-15T15:25:01;11.90;;;10.27;;
1649;SDS011;822;53.670;8.676;2023-02-15T15:27:36;12.33;;;9.10;;
1649;SDS011;822;53.670;8.676;2023-02-15T15:45:56;11.90;;;9.27;;
1649;SDS011;822;53.670;8.676;2023-02-15T15:48:41;14.77;;;10.07;;
1649;SDS011;822;53.670;8.676;2023-02-15T15:51:12;13.33;;;11.20;;
1649;SDS011;822;53.670;8.676;2023-02-15T15:53:45;13.37;;;10.10;;
1649;SDS011;822;53.670;8.676;2023-02-15T15:56:18;11.43;;;8.80;;
1649;SDS011;822;53.670;8.676;2023-02-15T15:58:48;12.27;;;9.03;;
1649;SDS011;822;53.670;8.676;2023-02-15T16:01:24;14.37;;;10.77;;
1649;SDS011;822;53.670;8.676;2023-02-15T16:03:53;12.73;;;10.13;;
1649;SDS011;822;53.670;8.676;2023-02-15T16:06:29;17.77;;;11.67;;
1649;SDS011;822;53.670;8.676;2023-02-15T16:09:08;17.50;;;10.83;;
1649;SDS011;822;53.670;8.676;2023-02-15T16:11:37;16.20;;;10.93;;
1649;SDS011;822;53.670;8.676;2023-02-15T16:14:16;14.33;;;9.60;;
1649;SDS011;822;53.670;8.676;2023-02-15T16:16:50;17.87;;;11.83;;
1649;SDS011;822;53.670;8.676;2023-02-15T16:19:22;13.50;;;9.90;;
1649;SDS011;822;53.670;8.676;2023-02-15T16:21:54;17.97;;;11.03;;
1649;SDS011;822;53.670;8.676;2023-02-15T16:24:36;17.07;;;11.10;;
1649;SDS011;822;53.670;8.676;2023-02-15T16:27:19;16.77;;;11.87;;
1649;SDS011;822;53.670;8.676;2023-02-15T16:30:20;12.70;;;11.40;;
1649;SDS011;822;53.670;8.676;2023-02-15T16:32:49;15.43;;;10.43;;
1649;SDS011;822;53.670;8.676;2023-02-15T16:35:19;16.30;;;10.23;;
1649;SDS011;822;53.670;8.676;2023-02-15T16:37:48;16.90;;;10.23;;
1649;SDS011;822;53.670;8.676;2023-02-15T16:40:35;19.57;;;12.50;;
1649;SDS011;822;53.670;8.676;2023-02-15T16:43:11;16.77;;;10.87;;
1649;SDS011;822;53.670;8.676;2023-02-15T16:45:42;16.80;;;11.70;;
1649;SDS011;822;53.670;8.676;2023-02-15T16:48:12;16.30;;;11.23;;